Time;durP1;ratioP1;P1;durP2;ratioP2;P2;SDS_P1;SDS_P2;PMS_P1;PMS_P2;Temp;Humidity;BMP_temperature;BMP_pressure;BME280_temperature;BME280_humidity;BME280_pressure;Samples;Min_cycle;Max_cycle;Signal;HPM_P1;HPM_P2
2021/01/02 00:02:14;;;;;;;4.63;0.30;;;5.80;99.90;;;;;;5030286;28;20107;-49
2021/01/02 00:05:05;;;;;;;5.35;0.40;;;5.80;99.90;;;;;;5029667;28;20494;-49
2021/01/02 00:07:52;;;;;;;1.17;0.50;;;5.80;99.90;;;;;;5027511;28;20426;-49
2021/01/02 00:10:21;;;;;;;2.65;0.60;;;5.80;99.90;;;;;;5025206;28;20053;-49
2021/01/02 00:12:57;;;;;;;1.85;0.40;;;5.80;99.90;;;;;;5028881;28;20053;-49
2021/01/02 00:15:36;;;;;;;2.55;0.32;;;5.80;99.90;;;;;;5024499;28;20063;-49
2021/01/02 00:18:24;;;;;;;4.28;0.40;;;5.80;99.90;;;;;;5029403;28;20050;-49
2021/01/02 00:20:53;;;;;;;2.47;0.30;;;5.80;99.90;;;;;;5028480;28;20048;-49
2021/01/02 00:23:28;;;;;;;6.13;0.70;;;5.70;99.90;;;;;;5025885;28;20050;-49
2021/01/02 00:26:18;;;;;;;8.57;0.60;;;5.70;99.90;;;;;;5025070;28;20046;-49
2021/01/02 00:28:48;;;;;;;5.47;0.52;;;5.80;99.90;;;;;;5018478;28;20045;-49
2021/01/02 00:31:34;;;;;;;6.63;0.30;;;5.80;99.90;;;;;;5028961;28;20103;-49
2021/01/02 00:34:07;;;;;;;3.38;0.40;;;5.80;99.90;;;;;;5026962;28;20441;-49
2021/01/02 00:36:43;;;;;;;2.70;0.45;;;5.80;99.90;;;;;;5026975;28;20054;-49
2021/01/02 00:39:16;;;;;;;7.20;0.55;;;5.80;99.90;;;;;;5025166;28;20061;-49
2021/01/02 00:41:45;;;;;;;1.42;0.40;;;5.80;99.90;;;;;;5028704;28;20057;-49
2021/01/02 00:44:14;;;;;;;2.15;0.60;;;5.80;99.90;;;;;;5033564;28;20057;-49
2021/01/02 00:46:42;;;;;;;11.57;2.67;;;5.80;99.90;;;;;;5029786;28;20053;-49
2021/01/02 00:49:10;;;;;;;3.08;0.60;;;5.70;99.90;;;;;;5032115;28;20534;-49
2021/01/02 00:51:47;;;;;;;3.55;1.13;;;5.70;99.90;;;;;;5033481;28;20056;-49
2021/01/02 00:54:35;;;;;;;1.17;0.30;;;5.70;99.90;;;;;;5024185;28;20045;-49
2021/01/02 00:57:03;;;;;;;4.65;0.30;;;5.70;99.90;;;;;;5029350;28;20061;-49
2021/01/02 00:59:42;;;;;;;4.15;0.30;;;5.70;99.90;;;;;;5031626;28;20053;-49
2021/01/02 01:02:39;;;;;;;8.70;0.90;;;5.70;99.90;;;;;;5015561;28;20107;-51
2021/01/02 01:05:13;;;;;;;11.02;0.80;;;5.70;99.90;;;;;;5031302;28;20045;-50
2021/01/02 01:07:40;;;;;;;3.40;0.20;;;5.70;99.90;;;;;;5031337;28;20053;-49
2021/01/02 01:10:10;;;;;;;2.40;0.20;;;5.70;99.90;;;;;;5024800;28;20045;-49
2021/01/02 01:12:43;;;;;;;1.38;0.20;;;5.70;99.90;;;;;;5029815;28;20061;-49
2021/01/02 01:15:11;;;;;;;6.15;0.30;;;5.70;99.90;;;;;;5016315;28;20067;-49
2021/01/02 01:18:02;;;;;;;4.50;0.30;;;5.70;99.90;;;;;;5033424;28;20049;-48
2021/01/02 01:20:29;;;;;;;7.07;0.20;;;5.70;99.90;;;;;;5032457;28;20052;-49
2021/01/02 01:23:29;;;;;;;3.75;0.20;;;5.70;99.90;;;;;;5029813;28;20042;-49
2021/01/02 01:25:59;;;;;;;2.00;0.20;;;5.70;99.90;;;;;;5029883;28;20052;-49
2021/01/02 01:28:32;;;;;;;0.75;0.10;;;5.70;99.90;;;;;;5032941;28;20045;-48
2021/01/02 01:31:04;;;;;;;5.97;0.10;;;5.70;99.90;;;;;;5022980;28;20459;-50
2021/01/02 01:33:30;;;;;;;1.13;0.10;;;5.80;99.90;;;;;;5024975;28;20299;-49
2021/01/02 01:36:03;;;;;;;1.55;0.10;;;5.80;99.90;;;;;;5026227;28;20042;-49
2021/01/02 01:38:30;;;;;;;1.92;0.20;;;5.80;99.90;;;;;;5029313;28;20053;-49
2021/01/02 01:41:22;;;;;;;0.88;0.20;;;5.80;99.90;;;;;;5024840;28;20659;-51
2021/01/02 01:44:08;;;;;;;4.30;0.70;;;5.80;99.90;;;;;;5020919;28;20068;-49
2021/01/02 01:46:50;;;;;;;3.20;0.20;;;5.80;99.90;;;;;;5026811;28;20475;-49
2021/01/02 01:49:43;;;;;;;1.33;0.20;;;5.80;99.90;;;;;;5031353;28;20064;-49
2021/01/02 01:52:18;;;;;;;0.20;0.10;;;5.80;99.90;;;;;;5013052;28;20750;-50
2021/01/02 01:54:56;;;;;;;3.35;0.25;;;5.80;99.90;;;;;;5029523;28;20111;-50
2021/01/02 01:57:27;;;;;;;2.92;0.70;;;5.80;99.90;;;;;;5031897;28;20494;-49
2021/01/02 01:59:56;;;;;;;2.85;0.60;;;5.80;99.90;;;;;;5028875;28;20044;-50
2021/01/02 02:02:49;;;;;;;6.18;0.57;;;5.80;99.90;;;;;;5026935;28;20049;-49
2021/01/02 02:05:24;;;;;;;3.85;0.38;;;5.80;99.90;;;;;;5024512;28;20049;-49
2021/01/02 02:08:10;;;;;;;1.90;0.22;;;5.80;99.90;;;;;;5021942;28;20052;-49
2021/01/02 02:10:48;;;;;;;2.33;0.10;;;5.80;99.90;;;;;;5032282;28;20501;-49
2021/01/02 02:13:20;;;;;;;2.25;0.30;;;5.90;99.90;;;;;;5027536;28;20061;-49
2021/01/02 02:15:52;;;;;;;0.47;0.43;;;5.90;99.90;;;;;;5018322;28;20478;-50
2021/01/02 02:18:29;;;;;;;2.33;0.20;;;5.90;99.90;;;;;;5030846;28;20067;-50
2021/01/02 02:21:01;;;;;;;0.82;0.10;;;5.90;99.90;;;;;;5029173;28;20053;-49
2021/01/02 02:23:41;;;;;;;6.00;0.30;;;5.90;99.90;;;;;;5032760;28;20109;-48
2021/01/02 02:26:33;;;;;;;0.65;0.20;;;5.90;99.90;;;;;;5029661;28;20069;-50
2021/01/02 02:29:13;;;;;;;0.95;0.20;;;6.00;99.90;;;;;;5018247;28;20049;-49
2021/01/02 02:31:44;;;;;;;3.08;0.20;;;6.10;99.90;;;;;;5029983;28;20053;-49
2021/01/02 02:34:11;;;;;;;4.03;0.10;;;6.00;99.90;;;;;;5027374;28;20056;-52
2021/01/02 02:36:38;;;;;;;4.78;0.10;;;6.00;99.90;;;;;;5023060;28;20058;-49
2021/01/02 02:39:07;;;;;;;0.95;0.10;;;5.90;99.90;;;;;;5028030;28;20057;-49
2021/01/02 02:41:51;;;;;;;0.30;0.08;;;5.90;99.90;;;;;;5031406;28;20049;-49
2021/01/02 02:44:21;;;;;;;1.38;0.10;;;5.90;99.90;;;;;;5020738;28;20057;-49
2021/01/02 02:46:54;;;;;;;1.65;0.10;;;5.90;99.90;;;;;;5022672;28;20049;-49
2021/01/02 02:49:25;;;;;;;1.98;0.10;;;6.00;99.90;;;;;;5025256;28;20049;-49
2021/01/02 02:51:58;;;;;;;1.60;0.13;;;5.90;99.90;;;;;;5026414;28;20398;-49
2021/01/02 02:54:25;;;;;;;2.00;0.25;;;5.90;99.90;;;;;;5016136;28;20115;-49
2021/01/02 02:56:52;;;;;;;0.98;0.20;;;5.90;99.90;;;;;;5032114;28;20060;-49
2021/01/02 02:59:19;;;;;;;0.98;0.20;;;5.90;99.90;;;;;;5030608;28;20463;-50
2021/01/02 03:01:48;;;;;;;3.22;0.20;;;5.90;99.90;;;;;;5031523;28;20666;-49
2021/01/02 03:04:15;;;;;;;0.50;0.10;;;5.90;99.90;;;;;;5029473;28;20049;-49
2021/01/02 03:06:45;;;;;;;3.78;0.20;;;5.90;99.90;;;;;;5030500;28;20057;-49
2021/01/02 03:09:13;;;;;;;0.57;0.13;;;5.80;99.90;;;;;;5029410;28;20079;-49
2021/01/02 03:11:42;;;;;;;0.28;0.10;;;5.90;99.90;;;;;;5029290;28;20441;-49
2021/01/02 03:14:09;;;;;;;1.65;0.15;;;5.90;99.90;;;;;;5022327;28;20053;-49
2021/01/02 03:16:35;;;;;;;0.15;0.10;;;5.90;99.90;;;;;;5028180;28;20049;-49
2021/01/02 03:19:05;;;;;;;1.67;0.10;;;5.90;99.90;;;;;;5025065;28;20046;-50
2021/01/02 03:21:32;;;;;;;0.40;0.17;;;5.90;99.90;;;;;;5026032;28;20049;-50
2021/01/02 03:24:01;;;;;;;0.60;0.20;;;5.90;99.90;;;;;;5013977;28;20437;-49
2021/01/02 03:26:27;;;;;;;0.40;0.10;;;5.90;99.90;;;;;;5028623;28;20104;-49
2021/01/02 03:28:54;;;;;;;2.63;0.28;;;5.90;99.90;;;;;;5030356;28;20049;-50
2021/01/02 03:31:21;;;;;;;1.52;0.20;;;5.90;99.90;;;;;;5020542;28;20053;-51
2021/01/02 03:33:47;;;;;;;1.05;0.20;;;5.90;99.90;;;;;;5021927;28;20137;-49
2021/01/02 03:36:15;;;;;;;1.02;0.17;;;5.90;99.90;;;;;;5023978;28;20053;-49
2021/01/02 03:38:55;;;;;;;4.75;0.30;;;5.90;99.90;;;;;;5026238;28;20390;-49
2021/01/02 03:41:27;;;;;;;3.83;0.40;;;5.90;99.90;;;;;;5029358;28;20045;-50
2021/01/02 03:43:54;;;;;;;0.93;0.20;;;5.90;99.90;;;;;;5023135;28;20050;-49
2021/01/02 03:46:26;;;;;;;1.75;0.10;;;5.90;99.90;;;;;;5019385;28;20064;-49
2021/01/02 03:48:53;;;;;;;0.93;0.10;;;6.00;99.90;;;;;;5030458;28;20045;-50
2021/01/02 03:51:26;;;;;;;3.50;0.13;;;6.10;99.90;;;;;;5023951;28;20471;-50
2021/01/02 03:53:53;;;;;;;2.50;0.10;;;6.10;99.90;;;;;;5025063;28;20379;-49
2021/01/02 03:56:20;;;;;;;0.17;0.00;;;6.10;99.90;;;;;;5025703;28;20056;-51
2021/01/02 03:58:50;;;;;;;1.55;0.20;;;6.10;99.90;;;;;;5013937;28;20041;-49
2021/01/02 04:01:17;;;;;;;2.05;0.10;;;6.10;99.90;;;;;;5022817;28;20418;-49
2021/01/02 04:03:43;;;;;;;1.85;0.00;;;6.10;99.90;;;;;;5021000;28;20053;-49
2021/01/02 04:06:10;;;;;;;1.25;0.10;;;6.10;99.90;;;;;;5017599;28;20046;-49
2021/01/02 04:08:36;;;;;;;0.10;0.00;;;6.00;99.90;;;;;;5023286;28;20049;-49
2021/01/02 04:11:03;;;;;;;0.25;0.03;;;6.00;99.90;;;;;;5031403;28;20398;-49
2021/01/02 04:13:29;;;;;;;3.53;0.20;;;6.00;99.90;;;;;;5032024;28;20054;-49
2021/01/02 04:15:56;;;;;;;4.35;0.55;;;6.00;99.90;;;;;;5033091;28;20053;-49
2021/01/02 04:18:22;;;;;;;2.35;0.20;;;6.00;99.90;;;;;;5027034;28;20050;-49
2021/01/02 04:20:49;;;;;;;1.13;0.30;;;6.00;99.90;;;;;;5022753;28;20053;-49
2021/01/02 04:23:16;;;;;;;0.20;0.10;;;6.00;99.90;;;;;;5019806;28;20053;-50
2021/01/02 04:25:42;;;;;;;1.48;0.00;;;6.00;99.90;;;;;;5026601;28;20052;-49
2021/01/02 04:28:12;;;;;;;0.15;0.00;;;6.00;99.90;;;;;;5017629;28;20395;-49
2021/01/02 04:30:38;;;;;;;2.13;0.00;;;5.90;99.90;;;;;;5029857;28;20403;-49
2021/01/02 04:33:05;;;;;;;0.30;0.05;;;5.90;99.90;;;;;;5016844;28;20100;-49
2021/01/02 04:35:32;;;;;;;0.10;0.08;;;6.00;99.90;;;;;;5028114;28;20056;-49
2021/01/02 04:38:03;;;;;;;0.20;0.03;;;5.90;99.90;;;;;;5029506;28;20048;-49
2021/01/02 04:40:30;;;;;;;0.35;0.05;;;5.80;99.90;;;;;;5029655;28;20042;-49
2021/01/02 04:42:57;;;;;;;3.95;0.15;;;5.80;99.90;;;;;;5033278;28;20041;-49
2021/01/02 04:45:25;;;;;;;0.85;0.10;;;5.70;99.90;;;;;;5016961;28;20141;-49
2021/01/02 04:47:53;;;;;;;1.00;0.05;;;5.70;99.90;;;;;;5030409;28;20049;-50
2021/01/02 04:50:21;;;;;;;1.08;0.10;;;5.70;99.90;;;;;;5032673;28;20042;-49
2021/01/02 04:52:52;;;;;;;0.10;0.00;;;5.70;99.90;;;;;;5034403;28;20064;-48
2021/01/02 04:55:22;;;;;;;1.10;0.10;;;5.80;99.90;;;;;;5031880;28;20058;-49
2021/01/02 04:57:49;;;;;;;0.20;0.00;;;5.70;99.90;;;;;;5032183;28;20057;-48
2021/01/02 05:00:17;;;;;;;1.50;0.08;;;5.80;99.90;;;;;;5030725;28;20049;-50
2021/01/02 05:02:44;;;;;;;0.32;0.00;;;5.80;99.90;;;;;;5021948;28;20423;-49
2021/01/02 05:05:11;;;;;;;0.50;0.15;;;5.80;99.90;;;;;;5027908;28;20049;-49
2021/01/02 05:07:37;;;;;;;0.93;0.00;;;5.80;99.90;;;;;;5028113;28;20045;-49
2021/01/02 05:10:05;;;;;;;0.40;0.10;;;5.80;99.90;;;;;;5032244;28;20411;-49
2021/01/02 05:12:33;;;;;;;0.40;0.05;;;5.80;99.90;;;;;;5030572;28;20077;-50
2021/01/02 05:15:04;;;;;;;1.63;0.00;;;5.80;99.90;;;;;;5020507;28;20057;-49
2021/01/02 05:17:31;;;;;;;0.75;0.10;;;5.80;99.90;;;;;;5027223;28;20045;-49
2021/01/02 05:20:00;;;;;;;1.30;0.10;;;5.80;99.90;;;;;;5031398;28;20045;-49
2021/01/02 05:22:27;;;;;;;0.40;0.10;;;5.80;99.90;;;;;;5027541;28;20046;-49
2021/01/02 05:25:04;;;;;;;0.90;0.10;;;5.70;99.90;;;;;;5018463;28;20291;-50
2021/01/02 05:27:37;;;;;;;1.13;0.10;;;5.80;99.90;;;;;;5031665;28;20045;-49
2021/01/02 05:30:17;;;;;;;;;;;5.70;99.90;;;;;;5028152;28;20049;-49
2021/01/02 05:33:09;;;;;;;1.17;0.20;;;5.70;99.90;;;;;;5032657;28;20589;-49
2021/01/02 05:35:46;;;;;;;1.65;0.20;;;5.70;99.90;;;;;;5029855;28;20049;-49
2021/01/02 05:38:18;;;;;;;0.30;0.20;;;5.70;99.90;;;;;;5019978;28;20053;-49
2021/01/02 05:40:58;;;;;;;1.17;0.10;;;5.70;99.90;;;;;;5026347;28;20057;-49
2021/01/02 05:43:27;;;;;;;0.22;0.10;;;5.70;99.90;;;;;;5028149;28;20114;-49
2021/01/02 05:45:55;;;;;;;0.82;0.10;;;5.70;99.90;;;;;;5018031;28;20640;-49
2021/01/02 05:48:24;;;;;;;4.93;0.60;;;5.70;99.90;;;;;;5029646;28;20048;-50
2021/01/02 05:50:57;;;;;;;0.85;0.20;;;5.60;99.90;;;;;;5030361;28;20049;-49
2021/01/02 05:53:31;;;;;;;;;;;5.60;99.90;;;;;;5033326;28;20482;-50
2021/01/02 05:56:13;;;;;;;3.75;0.40;;;5.70;99.90;;;;;;5030497;28;19928;-49
2021/01/02 05:58:47;;;;;;;2.67;0.10;;;5.70;99.90;;;;;;5030178;28;20060;-49
2021/01/02 06:01:15;;;;;;;0.77;0.00;;;5.80;99.90;;;;;;5030510;28;20457;-49
2021/01/02 06:03:44;;;;;;;3.08;0.10;;;6.00;99.90;;;;;;5029143;28;20049;-49
2021/01/02 06:06:13;;;;;;;0.32;0.10;;;6.10;99.90;;;;;;5021370;28;20057;-50
2021/01/02 06:08:39;;;;;;;0.28;0.10;;;6.10;99.90;;;;;;5024040;28;20045;-49
2021/01/02 06:11:13;;;;;;;1.95;0.10;;;6.00;99.90;;;;;;5020619;28;20552;-48
2021/01/02 06:13:47;;;;;;;0.30;0.30;;;6.00;99.90;;;;;;5027576;28;20061;-49
2021/01/02 06:16:14;;;;;;;0.10;0.00;;;5.90;99.90;;;;;;5015342;28;20042;-49
2021/01/02 06:18:43;;;;;;;1.27;0.00;;;6.00;99.90;;;;;;5031600;28;20049;-50
2021/01/02 06:21:12;;;;;;;0.00;0.00;;;6.00;99.90;;;;;;5030377;28;20056;-50
2021/01/02 06:23:40;;;;;;;0.50;0.30;;;6.00;99.90;;;;;;5031735;28;20054;-49
2021/01/02 06:26:10;;;;;;;0.20;0.00;;;6.00;99.90;;;;;;5030093;28;20497;-49
2021/01/02 06:28:39;;;;;;;0.13;0.05;;;6.20;99.90;;;;;;5014939;28;20108;-49
2021/01/02 06:31:16;;;;;;;0.40;0.13;;;6.30;99.90;;;;;;5028070;28;20049;-49
2021/01/02 06:33:48;;;;;;;1.95;0.20;;;6.20;99.90;;;;;;5021703;28;20056;-49
2021/01/02 06:36:41;;;;;;;0.50;0.00;;;6.20;99.90;;;;;;5030427;28;20391;-49
2021/01/02 06:39:19;;;;;;;1.88;0.00;;;6.20;99.90;;;;;;5026598;28;20164;-50
2021/01/02 06:41:46;;;;;;;1.33;0.10;;;6.30;99.90;;;;;;5012169;28;20056;-48
2021/01/02 06:44:39;;;;;;;0.05;0.00;;;6.30;99.90;;;;;;5032104;28;20042;-49
2021/01/02 06:47:16;;;;;;;0.00;0.00;;;6.20;99.90;;;;;;5028563;28;20043;-49
2021/01/02 06:49:43;;;;;;;0.73;0.10;;;6.20;99.90;;;;;;5022806;28;20049;-49
2021/01/02 06:52:32;;;;;;;0.22;0.10;;;6.10;99.90;;;;;;5030015;28;20049;-49
2021/01/02 06:55:20;;;;;;;0.30;0.00;;;6.20;99.90;;;;;;5031498;28;20060;-49
2021/01/02 06:57:50;;;;;;;0.38;0.00;;;6.20;99.90;;;;;;5021130;28;20054;-50
2021/01/02 07:00:25;;;;;;;0.10;0.00;;;6.20;99.90;;;;;;5020970;28;20049;-49
2021/01/02 07:02:56;;;;;;;0.63;0.00;;;6.30;99.90;;;;;;5031044;28;20413;-49
2021/01/02 07:05:43;;;;;;;0.75;0.40;;;6.30;99.90;;;;;;5027081;28;20095;-50
2021/01/02 07:08:42;;;;;;;0.13;0.00;;;6.30;99.90;;;;;;5015161;28;20046;-49
2021/01/02 07:11:25;;;;;;;2.45;0.00;;;6.40;99.90;;;;;;5030186;28;20061;-49
2021/01/02 07:14:10;;;;;;;0.10;0.10;;;6.40;99.90;;;;;;5029995;28;20072;-49
2021/01/02 07:16:52;;;;;;;0.77;0.13;;;6.40;99.90;;;;;;5029338;28;20083;-49
2021/01/02 07:19:26;;;;;;;0.38;0.10;;;6.20;99.90;;;;;;5019494;28;20058;-49
2021/01/02 07:22:03;;;;;;;0.20;0.00;;;6.20;99.90;;;;;;5025778;28;20494;-51
2021/01/02 07:24:31;;;;;;;0.03;0.00;;;6.20;99.90;;;;;;5017978;28;20053;-50
2021/01/02 07:26:57;;;;;;;3.25;1.90;;;6.20;99.90;;;;;;5028688;28;20046;-49
2021/01/02 07:29:26;;;;;;;2.45;0.70;;;6.10;99.90;;;;;;5029829;28;20092;-49
2021/01/02 07:31:52;;;;;;;0.22;0.20;;;6.10;99.90;;;;;;5022334;28;20054;-49
2021/01/02 07:34:23;;;;;;;3.70;0.30;;;6.10;99.90;;;;;;5025848;28;20384;-49
2021/01/02 07:36:50;;;;;;;1.27;0.20;;;6.10;99.90;;;;;;5024630;28;20052;-52
2021/01/02 07:39:18;;;;;;;0.10;0.00;;;6.10;99.90;;;;;;5029241;28;20050;-49
2021/01/02 07:41:45;;;;;;;2.17;0.00;;;6.10;99.90;;;;;;5030942;28;20053;-49
2021/01/02 07:44:11;;;;;;;0.10;0.00;;;6.10;99.90;;;;;;5027846;28;20378;-49
2021/01/02 07:46:43;;;;;;;0.00;0.00;;;6.00;99.90;;;;;;5023872;28;20577;-49
2021/01/02 07:49:10;;;;;;;0.00;0.00;;;6.10;99.90;;;;;;5030222;28;20049;-49
2021/01/02 07:51:40;;;;;;;0.00;0.00;;;6.00;99.90;;;;;;5029587;28;20123;-49
2021/01/02 07:54:07;;;;;;;0.10;0.00;;;5.90;99.90;;;;;;5029580;28;20053;-50
2021/01/02 07:56:43;;;;;;;0.10;0.00;;;5.80;99.90;;;;;;5028718;28;20057;-50
2021/01/02 07:59:22;;;;;;;0.00;0.00;;;5.80;99.90;;;;;;5014320;28;20052;-49
2021/01/02 08:01:53;;;;;;;0.00;0.00;;;5.70;99.90;;;;;;5024406;28;20049;-49
2021/01/02 08:04:21;;;;;;;0.10;0.00;;;5.70;99.90;;;;;;5017214;28;20064;-50
2021/01/02 08:06:56;;;;;;;0.00;0.00;;;5.70;99.90;;;;;;5029168;28;20133;-49
2021/01/02 08:09:23;;;;;;;0.00;0.00;;;5.70;99.90;;;;;;5028445;28;20050;-50
2021/01/02 08:12:01;;;;;;;0.00;0.00;;;5.60;99.90;;;;;;5012975;28;20050;-50
2021/01/02 08:14:31;;;;;;;0.80;0.00;;;5.70;99.90;;;;;;5028167;28;20092;-49
2021/01/02 08:17:01;;;;;;;0.30;0.20;;;5.60;99.90;;;;;;5029639;28;20052;-50
2021/01/02 08:19:35;;;;;;;0.30;0.10;;;5.60;99.90;;;;;;5019720;28;20057;-49
2021/01/02 08:22:05;;;;;;;0.40;0.20;;;5.60;99.90;;;;;;5022035;28;20061;-49
2021/01/02 08:24:32;;;;;;;0.55;0.10;;;5.60;99.90;;;;;;5029134;28;20049;-49
2021/01/02 08:27:01;;;;;;;0.20;0.10;;;5.60;99.90;;;;;;5028194;28;20041;-49
2021/01/02 08:29:29;;;;;;;0.30;0.22;;;5.60;99.90;;;;;;5027260;28;20387;-50
2021/01/02 08:32:05;;;;;;;0.55;0.40;;;5.60;99.90;;;;;;5028220;28;20132;-49
2021/01/02 08:34:33;;;;;;;1.42;0.40;;;5.60;99.90;;;;;;5028402;28;20108;-50
2021/01/02 08:37:02;;;;;;;0.77;0.50;;;5.60;99.90;;;;;;5020455;28;20538;-51
2021/01/02 08:39:29;;;;;;;0.30;0.10;;;5.60;99.90;;;;;;5027046;28;20104;-49
2021/01/02 08:41:57;;;;;;;0.20;0.20;;;5.60;99.90;;;;;;5013002;28;20057;-50
2021/01/02 08:44:28;;;;;;;0.28;0.20;;;5.60;99.90;;;;;;5026006;28;20487;-49
2021/01/02 08:46:55;;;;;;;0.20;0.20;;;5.60;99.90;;;;;;5020028;28;20049;-50
2021/01/02 08:49:31;;;;;;;0.15;0.10;;;5.60;99.90;;;;;;5020687;28;20052;-49
2021/01/02 08:52:17;;;;;;;0.13;0.13;;;5.50;99.90;;;;;;5017900;28;20099;-49
2021/01/02 08:54:45;;;;;;;0.20;0.17;;;5.60;99.90;;;;;;5016035;28;21513;-49
2021/01/02 08:57:31;;;;;;;0.20;0.10;;;5.60;99.90;;;;;;5028415;28;20164;-49
2021/01/02 09:00:05;;;;;;;23.63;9.30;;;5.60;99.90;;;;;;5030260;28;20356;-49
2021/01/02 09:02:32;;;;;;;1.73;0.40;;;5.60;99.90;;;;;;5022113;28;20053;-49
2021/01/02 09:05:05;;;;;;;0.47;0.30;;;5.60;99.90;;;;;;5024014;28;20069;-49
2021/01/02 09:07:32;;;;;;;0.30;0.30;;;5.60;99.90;;;;;;5027459;28;20048;-49
2021/01/02 09:10:19;;;;;;;0.40;0.30;;;5.60;99.90;;;;;;5029552;28;20136;-49
2021/01/02 09:13:04;;;;;;;1.27;0.20;;;5.60;99.90;;;;;;5022853;28;20485;-50
2021/01/02 09:15:46;;;;;;;0.35;0.10;;;5.70;99.90;;;;;;5029233;28;20502;-49
2021/01/02 09:18:34;;;;;;;0.00;0.00;;;5.60;99.90;;;;;;5030041;28;20409;-49
2021/01/02 09:21:09;;;;;;;0.65;0.10;;;5.60;99.90;;;;;;5015040;28;20475;-49
2021/01/02 09:23:49;;;;;;;0.57;0.45;;;5.70;99.90;;;;;;5023128;28;20595;-50
2021/01/02 09:26:27;;;;;;;0.20;0.10;;;5.60;99.90;;;;;;5023560;28;20049;-49
2021/01/02 09:28:56;;;;;;;1.25;0.20;;;5.60;99.90;;;;;;5030179;28;20479;-49
2021/01/02 09:31:23;;;;;;;0.50;0.38;;;5.70;99.90;;;;;;5028962;28;20125;-50
2021/01/02 09:33:50;;;;;;;1.50;0.40;;;5.70;99.90;;;;;;5014450;28;20061;-49
2021/01/02 09:36:19;;;;;;;1.92;0.77;;;5.70;99.90;;;;;;5027165;28;20128;-50
2021/01/02 09:38:46;;;;;;;17.45;5.72;;;5.70;99.90;;;;;;5030614;28;20463;-50
2021/01/02 09:41:16;;;;;;;11.77;4.35;;;5.70;99.90;;;;;;5024354;28;20073;-53
2021/01/02 09:43:43;;;;;;;1.83;0.80;;;5.70;99.90;;;;;;5017431;28;20069;-49
2021/01/02 09:46:20;;;;;;;1.10;0.40;;;5.70;99.90;;;;;;5031850;28;20053;-50
2021/01/02 09:48:49;;;;;;;0.70;0.50;;;5.80;99.90;;;;;;5029578;28;20049;-49
2021/01/02 09:51:16;;;;;;;1.80;0.55;;;5.80;99.90;;;;;;5020949;28;20050;-49
2021/01/02 09:53:43;;;;;;;2.67;0.70;;;5.80;99.90;;;;;;5024667;28;20057;-49
2021/01/02 09:56:10;;;;;;;0.20;0.15;;;5.80;99.90;;;;;;5030728;28;20057;-49
2021/01/02 09:58:37;;;;;;;0.20;0.20;;;5.90;99.90;;;;;;5027845;28;20135;-50
2021/01/02 10:01:05;;;;;;;0.08;0.00;;;5.90;99.90;;;;;;5021581;28;20050;-49
2021/01/02 10:03:32;;;;;;;0.00;0.00;;;6.00;99.90;;;;;;5028164;28;20045;-49
2021/01/02 10:05:58;;;;;;;0.10;0.10;;;6.00;99.90;;;;;;5018413;28;20049;-49
2021/01/02 10:08:25;;;;;;;0.15;0.10;;;6.00;99.90;;;;;;5020435;28;20046;-49
2021/01/02 10:10:52;;;;;;;0.10;0.10;;;6.10;99.90;;;;;;5024465;28;20057;-49
2021/01/02 10:13:19;;;;;;;0.30;0.10;;;6.10;99.90;;;;;;5029439;28;20053;-51
2021/01/02 10:15:46;;;;;;;0.10;0.10;;;6.10;99.90;;;;;;5027136;28;20057;-49
2021/01/02 10:18:14;;;;;;;0.10;0.00;;;6.20;99.90;;;;;;5014664;28;20054;-49
2021/01/02 10:20:40;;;;;;;0.20;0.10;;;6.30;99.90;;;;;;5027257;28;20045;-50
2021/01/02 10:23:07;;;;;;;0.22;0.15;;;6.40;99.90;;;;;;5030331;28;20046;-49
2021/01/02 10:25:34;;;;;;;0.10;0.00;;;6.50;99.90;;;;;;5028977;28;20061;-49
2021/01/02 10:28:01;;;;;;;0.00;0.00;;;6.50;99.90;;;;;;5024775;28;20049;-49
2021/01/02 10:30:27;;;;;;;0.10;0.00;;;6.50;99.90;;;;;;5019522;28;20817;-49
2021/01/02 10:32:53;;;;;;;0.10;0.00;;;6.50;99.90;;;;;;5022367;28;20655;-49
2021/01/02 10:35:20;;;;;;;0.10;0.10;;;6.50;99.90;;;;;;5020380;28;20106;-48
2021/01/02 10:37:48;;;;;;;9.48;6.47;;;6.50;99.90;;;;;;5028315;28;20057;-49
2021/01/02 10:40:17;;;;;;;3.58;2.85;;;6.50;99.90;;;;;;5025595;28;20049;-48
2021/01/02 10:42:44;;;;;;;4.60;3.38;;;6.60;99.90;;;;;;5030669;28;20045;-49
2021/01/02 10:45:14;;;;;;;1.75;0.85;;;6.60;99.90;;;;;;5029842;28;20052;-49
2021/01/02 10:47:40;;;;;;;1.00;0.50;;;6.50;99.90;;;;;;5023274;28;20057;-50
2021/01/02 10:50:08;;;;;;;1.05;0.50;;;6.60;99.90;;;;;;5029925;28;20067;-49
2021/01/02 10:52:35;;;;;;;0.80;0.80;;;6.60;99.90;;;;;;5028368;28;20053;-49
2021/01/02 10:55:02;;;;;;;1.58;1.48;;;6.70;99.90;;;;;;5025587;28;20053;-49
2021/01/02 10:57:29;;;;;;;1.00;0.80;;;6.60;99.90;;;;;;5028567;28;20046;-49
2021/01/02 10:59:56;;;;;;;0.30;0.20;;;6.60;99.90;;;;;;5029860;28;20054;-48
2021/01/02 11:02:24;;;;;;;2.33;2.13;;;6.60;99.90;;;;;;5029124;28;20095;-49
2021/01/02 11:04:51;;;;;;;0.10;0.10;;;6.60;99.90;;;;;;5022316;28;20053;-49
2021/01/02 11:07:23;;;;;;;3.65;2.47;;;6.60;99.90;;;;;;5024652;28;20052;-49
2021/01/02 11:09:52;;;;;;;2.78;1.45;;;6.70;99.90;;;;;;5018525;28;20050;-49
2021/01/02 11:12:19;;;;;;;1.02;0.50;;;6.70;99.90;;;;;;5029639;28;20065;-49
2021/01/02 11:14:47;;;;;;;0.38;0.30;;;6.60;99.90;;;;;;5026149;28;20509;-49
2021/01/02 11:17:14;;;;;;;0.90;0.20;;;6.70;99.90;;;;;;5026040;28;20387;-49
2021/01/02 11:19:40;;;;;;;0.20;0.10;;;6.70;99.90;;;;;;5026050;28;20038;-49
2021/01/02 11:22:07;;;;;;;0.20;0.10;;;6.70;99.90;;;;;;5029847;28;20403;-49
2021/01/02 11:24:39;;;;;;;0.40;0.38;;;6.70;99.90;;;;;;5027415;28;20488;-50
2021/01/02 11:27:06;;;;;;;0.30;0.20;;;6.70;99.90;;;;;;5024085;28;20172;-49
2021/01/02 11:29:33;;;;;;;0.13;0.10;;;6.70;99.90;;;;;;5023873;28;20053;-49
2021/01/02 11:32:04;;;;;;;2.95;1.60;;;6.70;99.90;;;;;;5032432;28;20060;-49
2021/01/02 11:34:30;;;;;;;11.32;7.20;;;6.70;99.90;;;;;;5023546;28;20049;-49
2021/01/02 11:36:59;;;;;;;12.15;3.63;;;6.70;99.90;;;;;;5023677;28;20050;-50
2021/01/02 11:39:26;;;;;;;13.18;9.32;;;6.70;99.90;;;;;;5027644;28;20053;-49
2021/01/02 11:41:53;;;;;;;4.97;3.40;;;6.70;99.90;;;;;;5025732;28;20403;-50
2021/01/02 11:44:24;;;;;;;5.70;2.38;;;6.70;99.90;;;;;;5028670;28;20391;-49
2021/01/02 11:46:52;;;;;;;2.80;0.70;;;6.70;99.90;;;;;;5022828;28;20072;-49
2021/01/02 11:49:26;;;;;;;0.25;0.20;;;6.70;99.90;;;;;;5029133;28;20046;-49
2021/01/02 11:51:55;;;;;;;0.10;0.00;;;6.60;99.90;;;;;;5026259;28;20041;-49
2021/01/02 11:54:23;;;;;;;0.20;0.00;;;6.60;99.90;;;;;;5021317;28;20053;-49
2021/01/02 11:56:51;;;;;;;0.00;0.00;;;6.40;99.90;;;;;;5028618;28;20065;-49
2021/01/02 11:59:18;;;;;;;0.10;0.00;;;6.30;99.90;;;;;;5032439;28;20064;-49
2021/01/02 12:01:51;;;;;;;1.85;0.03;;;6.20;99.90;;;;;;5027656;28;20068;-49
2021/01/02 12:04:21;;;;;;;0.10;0.00;;;6.20;99.90;;;;;;5028824;28;20045;-49
2021/01/02 12:06:48;;;;;;;0.00;0.00;;;6.10;99.90;;;;;;5028631;28;20046;-49
2021/01/02 12:09:16;;;;;;;0.10;0.00;;;6.00;99.90;;;;;;5027506;28;20506;-49
2021/01/02 12:11:44;;;;;;;0.10;0.00;;;5.90;99.90;;;;;;5028182;28;20053;-49
2021/01/02 12:14:13;;;;;;;0.00;0.00;;;5.80;99.90;;;;;;5025334;28;20053;-50
2021/01/02 12:16:42;;;;;;;0.30;0.20;;;5.80;99.90;;;;;;5015966;28;20410;-49
2021/01/02 12:19:14;;;;;;;0.20;0.00;;;5.80;99.90;;;;;;5023089;28;20053;-49
2021/01/02 12:21:42;;;;;;;0.75;0.10;;;5.80;99.90;;;;;;5021473;28;20055;-49
2021/01/02 12:24:09;;;;;;;0.43;0.10;;;5.70;99.90;;;;;;5015147;28;20050;-49
2021/01/02 12:27:05;;;;;;;1.00;0.20;;;5.70;99.90;;;;;;5025012;28;20060;-49
2021/01/02 12:29:33;;;;;;;6.72;2.10;;;5.80;99.90;;;;;;5014187;28;20038;-50
2021/01/02 12:32:05;;;;;;;4.57;1.73;;;5.80;99.90;;;;;;5030234;28;20399;-50
2021/01/02 12:34:34;;;;;;;1.50;0.40;;;5.80;99.90;;;;;;5029546;28;20410;-49
2021/01/02 12:37:06;;;;;;;1.48;0.90;;;5.80;99.90;;;;;;5032428;28;20049;-49
2021/01/02 12:39:38;;;;;;;0.45;0.30;;;5.80;99.90;;;;;;5029773;28;20050;-49
2021/01/02 12:42:05;;;;;;;0.38;0.20;;;5.80;99.90;;;;;;5030992;28;20057;-49
2021/01/02 12:44:32;;;;;;;0.75;0.40;;;5.80;99.90;;;;;;5028198;28;20061;-49
2021/01/02 12:47:12;;;;;;;0.30;0.13;;;5.80;99.90;;;;;;5020930;28;20064;-49
2021/01/02 12:49:42;;;;;;;1.02;0.30;;;5.80;99.90;;;;;;5031851;28;20069;-49
2021/01/02 12:52:09;;;;;;;0.38;0.30;;;5.80;99.90;;;;;;5028020;28;20045;-49
2021/01/02 12:54:36;;;;;;;1.23;0.40;;;5.80;99.90;;;;;;5032756;28;20518;-49
2021/01/02 12:57:03;;;;;;;0.50;0.30;;;5.70;99.90;;;;;;5029996;28;20057;-49
2021/01/02 12:59:36;;;;;;;0.80;0.57;;;5.80;99.90;;;;;;5027478;28;20077;-49
2021/01/02 13:02:09;;;;;;;1.60;0.43;;;5.80;99.90;;;;;;5027261;28;20054;-50
2021/01/02 13:04:36;;;;;;;8.60;4.47;;;5.70;99.90;;;;;;5025360;28;20037;-49
2021/01/02 13:07:05;;;;;;;3.80;2.55;;;5.80;99.90;;;;;;5031317;28;20053;-49
2021/01/02 13:09:33;;;;;;;1.40;0.93;;;5.70;99.90;;;;;;5031809;28;20057;-49
2021/01/02 13:12:00;;;;;;;3.40;1.52;;;5.70;99.90;;;;;;5026489;28;20145;-49
2021/01/02 13:14:29;;;;;;;5.57;2.85;;;5.70;99.90;;;;;;5031063;28;20061;-50
2021/01/02 13:16:58;;;;;;;6.18;3.13;;;5.80;99.90;;;;;;5032306;28;20506;-49
2021/01/02 13:19:25;;;;;;;7.80;2.63;;;5.80;99.90;;;;;;5031619;28;20049;-49
2021/01/02 13:21:58;;;;;;;3.67;2.55;;;5.70;99.90;;;;;;5027696;28;20065;-49